sensor_id;sensor_type;location;lat;lon;timestamp;P1;durP1;ratioP1;P2;durP2;ratioP2
42702;SDS011;28341;52.064;4.920;2023-06-19T00:01:27;14.15;;;9.45;;
42702;SDS011;28341;52.064;4.920;2023-06-19T00:03:32;10.70;;;9.38;;
42702;SDS011;28341;52.064;4.920;2023-06-19T00:05:36;11.90;;;9.38;;
42702;SDS011;28341;52.064;4.920;2023-06-19T00:07:41;14.60;;;10.23;;
42702;SDS011;28341;52.064;4.920;2023-06-19T00:09:45;12.23;;;10.90;;
42702;SDS011;28341;52.064;4.920;2023-06-19T00:11:49;17.25;;;11.32;;
42702;SDS011;28341;52.064;4.920;2023-06-19T00:13:54;14.07;;;9.93;;
42702;SDS011;28341;52.064;4.920;2023-06-19T00:15:58;14.82;;;9.77;;
42702;SDS011;28341;52.064;4.920;2023-06-19T00:18:05;12.30;;;10.82;;
42702;SDS011;28341;52.064;4.920;2023-06-19T00:20:11;10.13;;;9.05;;
42702;SDS011;28341;52.064;4.920;2023-06-19T00:22:15;14.40;;;9.25;;
42702;SDS011;28341;52.064;4.920;2023-06-19T00:24:20;12.63;;;9.23;;
42702;SDS011;28341;52.064;4.920;2023-06-19T00:26:24;11.48;;;8.75;;
42702;SDS011;28341;52.064;4.920;2023-06-19T00:28:28;10.23;;;7.63;;
42702;SDS011;28341;52.064;4.920;2023-06-19T00:30:34;8.05;;;7.22;;
42702;SDS011;28341;52.064;4.920;2023-06-19T00:32:39;10.27;;;7.50;;
42702;SDS011;28341;52.064;4.920;2023-06-19T00:34:53;11.73;;;7.17;;
42702;SDS011;28341;52.064;4.920;2023-06-19T00:37:00;10.38;;;6.32;;
42702;SDS011;28341;52.064;4.920;2023-06-19T00:39:04;6.30;;;4.72;;
42702;SDS011;28341;52.064;4.920;2023-06-19T00:41:08;8.48;;;4.25;;
42702;SDS011;28341;52.064;4.920;2023-06-19T00:43:15;5.05;;;3.88;;
42702;SDS011;28341;52.064;4.920;2023-06-19T00:45:20;6.20;;;3.47;;
42702;SDS011;28341;52.064;4.920;2023-06-19T00:47:24;7.78;;;3.40;;
42702;SDS011;28341;52.064;4.920;2023-06-19T00:49:30;4.53;;;2.83;;
42702;SDS011;28341;52.064;4.920;2023-06-19T00:51:37;5.18;;;2.67;;
42702;SDS011;28341;52.064;4.920;2023-06-19T00:53:42;5.18;;;2.70;;
42702;SDS011;28341;52.064;4.920;2023-06-19T00:55:46;4.80;;;2.67;;
42702;SDS011;28341;52.064;4.920;2023-06-19T00:57:52;3.60;;;2.80;;
42702;SDS011;28341;52.064;4.920;2023-06-19T00:59:56;5.70;;;3.15;;
42702;SDS011;28341;52.064;4.920;2023-06-19T01:02:01;3.40;;;2.67;;
42702;SDS011;28341;52.064;4.920;2023-06-19T01:04:06;3.28;;;2.50;;
42702;SDS011;28341;52.064;4.920;2023-06-19T01:06:13;5.55;;;2.58;;
42702;SDS011;28341;52.064;4.920;2023-06-19T01:08:30;5.18;;;2.85;;
42702;SDS011;28341;52.064;4.920;2023-06-19T01:10:50;4.97;;;2.95;;
42702;SDS011;28341;52.064;4.920;2023-06-19T01:12:58;3.92;;;2.85;;
42702;SDS011;28341;52.064;4.920;2023-06-19T01:15:06;5.85;;;3.05;;
42702;SDS011;28341;52.064;4.920;2023-06-19T01:17:12;5.97;;;3.35;;
42702;SDS011;28341;52.064;4.920;2023-06-19T01:19:18;6.35;;;2.80;;
42702;SDS011;28341;52.064;4.920;2023-06-19T01:21:23;6.03;;;3.42;;
42702;SDS011;28341;52.064;4.920;2023-06-19T01:23:32;5.53;;;3.10;;
42702;SDS011;28341;52.064;4.920;2023-06-19T01:25:36;6.15;;;2.97;;
42702;SDS011;28341;52.064;4.920;2023-06-19T01:27:41;6.60;;;3.80;;
42702;SDS011;28341;52.064;4.920;2023-06-19T01:29:47;5.03;;;3.47;;
42702;SDS011;28341;52.064;4.920;2023-06-19T01:31:53;5.63;;;3.47;;
42702;SDS011;28341;52.064;4.920;2023-06-19T01:34:01;9.23;;;3.22;;
42702;SDS011;28341;52.064;4.920;2023-06-19T01:36:08;8.55;;;3.85;;
42702;SDS011;28341;52.064;4.920;2023-06-19T01:38:13;7.47;;;3.47;;
42702;SDS011;28341;52.064;4.920;2023-06-19T01:40:21;4.70;;;3.35;;
42702;SDS011;28341;52.064;4.920;2023-06-19T01:42:28;6.18;;;3.55;;
42702;SDS011;28341;52.064;4.920;2023-06-19T01:44:32;4.40;;;3.63;;
42702;SDS011;28341;52.064;4.920;2023-06-19T01:46:36;7.00;;;3.63;;
42702;SDS011;28341;52.064;4.920;2023-06-19T01:48:41;5.13;;;4.22;;
42702;SDS011;28341;52.064;4.920;2023-06-19T01:50:46;7.70;;;6.05;;
42702;SDS011;28341;52.064;4.920;2023-06-19T01:52:51;8.45;;;5.70;;
42702;SDS011;28341;52.064;4.920;2023-06-19T01:54:55;6.95;;;5.78;;
42702;SDS011;28341;52.064;4.920;2023-06-19T01:57:03;10.85;;;5.53;;
42702;SDS011;28341;52.064;4.920;2023-06-19T01:59:07;6.10;;;5.50;;
42702;SDS011;28341;52.064;4.920;2023-06-19T02:01:12;10.48;;;5.20;;
42702;SDS011;28341;52.064;4.920;2023-06-19T02:03:17;7.65;;;5.35;;
42702;SDS011;28341;52.064;4.920;2023-06-19T02:05:21;9.85;;;5.25;;
42702;SDS011;28341;52.064;4.920;2023-06-19T02:07:26;9.10;;;5.22;;
42702;SDS011;28341;52.064;4.920;2023-06-19T02:09:30;6.05;;;4.97;;
42702;SDS011;28341;52.064;4.920;2023-06-19T02:11:34;5.78;;;5.15;;
42702;SDS011;28341;52.064;4.920;2023-06-19T02:13:42;9.00;;;5.50;;
42702;SDS011;28341;52.064;4.920;2023-06-19T02:15:47;7.72;;;5.85;;
42702;SDS011;28341;52.064;4.920;2023-06-19T02:17:51;7.20;;;5.72;;
42702;SDS011;28341;52.064;4.920;2023-06-19T02:19:57;9.88;;;5.85;;
42702;SDS011;28341;52.064;4.920;2023-06-19T02:22:01;6.28;;;5.68;;
42702;SDS011;28341;52.064;4.920;2023-06-19T02:24:06;8.05;;;5.72;;
42702;SDS011;28341;52.064;4.920;2023-06-19T02:26:12;6.43;;;5.82;;
42702;SDS011;28341;52.064;4.920;2023-06-19T02:28:20;8.43;;;6.90;;
42702;SDS011;28341;52.064;4.920;2023-06-19T02:30:27;7.80;;;6.90;;
42702;SDS011;28341;52.064;4.920;2023-06-19T02:32:31;6.80;;;6.00;;
42702;SDS011;28341;52.064;4.920;2023-06-19T02:34:36;8.38;;;7.43;;
42702;SDS011;28341;52.064;4.920;2023-06-19T02:36:41;8.07;;;7.28;;
42702;SDS011;28341;52.064;4.920;2023-06-19T02:38:47;7.30;;;6.60;;
42702;SDS011;28341;52.064;4.920;2023-06-19T02:40:52;10.57;;;7.35;;
42702;SDS011;28341;52.064;4.920;2023-06-19T02:42:57;9.65;;;8.23;;
42702;SDS011;28341;52.064;4.920;2023-06-19T02:45:02;10.13;;;7.80;;
42702;SDS011;28341;52.064;4.920;2023-06-19T02:47:09;10.27;;;9.15;;
42702;SDS011;28341;52.064;4.920;2023-06-19T02:49:14;13.05;;;8.35;;
42702;SDS011;28341;52.064;4.920;2023-06-19T02:51:18;10.05;;;9.02;;
42702;SDS011;28341;52.064;4.920;2023-06-19T02:53:23;9.35;;;8.35;;
42702;SDS011;28341;52.064;4.920;2023-06-19T02:55:27;12.55;;;8.38;;
42702;SDS011;28341;52.064;4.920;2023-06-19T02:57:32;13.98;;;9.38;;
42702;SDS011;28341;52.064;4.920;2023-06-19T02:59:37;10.93;;;9.80;;
42702;SDS011;28341;52.064;4.920;2023-06-19T03:01:41;11.55;;;10.35;;
42702;SDS011;28341;52.064;4.920;2023-06-19T03:03:50;13.27;;;11.60;;
42702;SDS011;28341;52.064;4.920;2023-06-19T03:05:54;16.08;;;11.95;;
42702;SDS011;28341;52.064;4.920;2023-06-19T03:08:01;16.08;;;13.27;;
42702;SDS011;28341;52.064;4.920;2023-06-19T03:10:06;16.10;;;13.02;;
42702;SDS011;28341;52.064;4.920;2023-06-19T03:12:11;14.85;;;13.10;;
42702;SDS011;28341;52.064;4.920;2023-06-19T03:14:16;14.13;;;12.63;;
42702;SDS011;28341;52.064;4.920;2023-06-19T03:16:21;15.10;;;12.32;;
42702;SDS011;28341;52.064;4.920;2023-06-19T03:18:25;14.60;;;12.80;;
42702;SDS011;28341;52.064;4.920;2023-06-19T03:20:32;15.93;;;14.23;;
42702;SDS011;28341;52.064;4.920;2023-06-19T03:22:36;14.05;;;12.60;;
42702;SDS011;28341;52.064;4.920;2023-06-19T03:24:45;16.48;;;13.43;;
42702;SDS011;28341;52.064;4.920;2023-06-19T03:26:53;15.73;;;13.68;;
42702;SDS011;28341;52.064;4.920;2023-06-19T03:28:58;13.40;;;12.10;;
42702;SDS011;28341;52.064;4.920;2023-06-19T03:31:10;15.07;;;12.77;;
42702;SDS011;28341;52.064;4.920;2023-06-19T03:33:15;13.73;;;12.32;;
42702;SDS011;28341;52.064;4.920;2023-06-19T03:35:20;15.23;;;12.75;;
42702;SDS011;28341;52.064;4.920;2023-06-19T03:37:27;16.75;;;13.40;;
42702;SDS011;28341;52.064;4.920;2023-06-19T03:39:34;15.45;;;13.30;;
42702;SDS011;28341;52.064;4.920;2023-06-19T03:41:44;16.92;;;14.25;;
42702;SDS011;28341;52.064;4.920;2023-06-19T03:43:48;15.48;;;13.77;;
42702;SDS011;28341;52.064;4.920;2023-06-19T03:45:53;18.02;;;15.05;;
42702;SDS011;28341;52.064;4.920;2023-06-19T03:47:58;15.98;;;14.38;;
42702;SDS011;28341;52.064;4.920;2023-06-19T03:50:02;16.02;;;13.45;;
42702;SDS011;28341;52.064;4.920;2023-06-19T03:52:10;14.68;;;13.20;;
42702;SDS011;28341;52.064;4.920;2023-06-19T03:54:17;15.63;;;13.20;;
42702;SDS011;28341;52.064;4.920;2023-06-19T03:56:21;15.38;;;13.38;;
42702;SDS011;28341;52.064;4.920;2023-06-19T03:58:26;14.93;;;12.75;;
42702;SDS011;28341;52.064;4.920;2023-06-19T04:00:31;14.90;;;13.27;;
42702;SDS011;28341;52.064;4.920;2023-06-19T04:02:35;13.20;;;11.18;;
42702;SDS011;28341;52.064;4.920;2023-06-19T04:04:39;12.27;;;10.93;;
42702;SDS011;28341;52.064;4.920;2023-06-19T04:06:44;12.63;;;11.32;;
42702;SDS011;28341;52.064;4.920;2023-06-19T04:08:49;13.93;;;12.18;;
42702;SDS011;28341;52.064;4.920;2023-06-19T04:10:56;14.40;;;11.88;;
42702;SDS011;28341;52.064;4.920;2023-06-19T04:13:02;16.67;;;12.63;;
42702;SDS011;28341;52.064;4.920;2023-06-19T04:15:07;14.52;;;12.48;;
42702;SDS011;28341;52.064;4.920;2023-06-19T04:17:13;14.50;;;11.85;;
42702;SDS011;28341;52.064;4.920;2023-06-19T04:19:18;15.23;;;12.00;;
42702;SDS011;28341;52.064;4.920;2023-06-19T04:21:23;15.05;;;11.98;;
42702;SDS011;28341;52.064;4.920;2023-06-19T04:23:29;13.82;;;10.48;;
42702;SDS011;28341;52.064;4.920;2023-06-19T04:25:33;13.23;;;8.73;;
42702;SDS011;28341;52.064;4.920;2023-06-19T04:27:41;10.65;;;8.52;;
42702;SDS011;28341;52.064;4.920;2023-06-19T04:29:45;10.45;;;7.68;;
42702;SDS011;28341;52.064;4.920;2023-06-19T04:31:52;9.93;;;6.80;;
42702;SDS011;28341;52.064;4.920;2023-06-19T04:33:57;9.38;;;6.82;;
42702;SDS011;28341;52.064;4.920;2023-06-19T04:36:05;8.02;;;7.13;;
42702;SDS011;28341;52.064;4.920;2023-06-19T04:38:10;8.82;;;6.32;;
42702;SDS011;28341;52.064;4.920;2023-06-19T04:40:15;7.60;;;5.10;;
42702;SDS011;28341;52.064;4.920;2023-06-19T04:42:19;5.03;;;4.40;;
42702;SDS011;28341;52.064;4.920;2023-06-19T04:44:26;5.93;;;4.30;;
42702;SDS011;28341;52.064;4.920;2023-06-19T04:46:33;7.40;;;4.35;;
42702;SDS011;28341;52.064;4.920;2023-06-19T04:48:38;9.40;;;5.30;;
42702;SDS011;28341;52.064;4.920;2023-06-19T04:50:42;9.70;;;5.15;;
42702;SDS011;28341;52.064;4.920;2023-06-19T04:52:47;7.70;;;4.95;;
42702;SDS011;28341;52.064;4.920;2023-06-19T04:54:51;6.68;;;4.72;;
42702;SDS011;28341;52.064;4.920;2023-06-19T04:56:55;6.15;;;4.55;;
42702;SDS011;28341;52.064;4.920;2023-06-19T04:59:00;4.30;;;3.85;;
42702;SDS011;28341;52.064;4.920;2023-06-19T05:01:07;6.10;;;4.22;;
42702;SDS011;28341;52.064;4.920;2023-06-19T05:03:11;7.80;;;4.25;;
42702;SDS011;28341;52.064;4.920;2023-06-19T05:05:17;5.22;;;4.13;;
42702;SDS011;28341;52.064;4.920;2023-06-19T05:07:21;5.15;;;3.70;;
42702;SDS011;28341;52.064;4.920;2023-06-19T05:09:26;4.90;;;3.05;;
42702;SDS011;28341;52.064;4.920;2023-06-19T05:11:30;6.68;;;3.65;;
42702;SDS011;28341;52.064;4.920;2023-06-19T05:13:34;5.65;;;4.10;;
42702;SDS011;28341;52.064;4.920;2023-06-19T05:15:39;6.43;;;4.85;;
42702;SDS011;28341;52.064;4.920;2023-06-19T05:17:46;5.97;;;5.03;;
42702;SDS011;28341;52.064;4.920;2023-06-19T05:19:50;7.22;;;5.32;;
42702;SDS011;28341;52.064;4.920;2023-06-19T05:21:55;7.57;;;5.70;;
42702;SDS011;28341;52.064;4.920;2023-06-19T05:23:59;9.07;;;6.43;;
42702;SDS011;28341;52.064;4.920;2023-06-19T05:26:03;9.10;;;6.93;;
42702;SDS011;28341;52.064;4.920;2023-06-19T05:28:08;8.57;;;7.35;;
42702;SDS011;28341;52.064;4.920;2023-06-19T05:30:12;10.10;;;8.40;;
42702;SDS011;28341;52.064;4.920;2023-06-19T05:32:17;11.52;;;9.45;;
42702;SDS011;28341;52.064;4.920;2023-06-19T05:34:24;10.88;;;8.60;;
42702;SDS011;28341;52.064;4.920;2023-06-19T05:36:28;11.13;;;8.75;;
42702;SDS011;28341;52.064;4.920;2023-06-19T05:38:33;10.88;;;9.07;;
42702;SDS011;28341;52.064;4.920;2023-06-19T05:40:37;11.63;;;8.48;;
42702;SDS011;28341;52.064;4.920;2023-06-19T05:42:42;12.68;;;8.88;;
42702;SDS011;28341;52.064;4.920;2023-06-19T05:44:46;10.40;;;8.70;;
42702;SDS011;28341;52.064;4.920;2023-06-19T05:46:50;10.35;;;8.70;;
42702;SDS011;28341;52.064;4.920;2023-06-19T05:48:55;10.00;;;8.75;;
42702;SDS011;28341;52.064;4.920;2023-06-19T05:51:02;12.00;;;8.20;;
42702;SDS011;28341;52.064;4.920;2023-06-19T05:53:06;8.88;;;7.97;;
42702;SDS011;28341;52.064;4.920;2023-06-19T05:55:11;10.90;;;7.88;;
42702;SDS011;28341;52.064;4.920;2023-06-19T05:57:15;12.40;;;9.45;;
42702;SDS011;28341;52.064;4.920;2023-06-19T05:59:21;17.75;;;11.05;;
42702;SDS011;28341;52.064;4.920;2023-06-19T06:01:25;15.40;;;9.65;;
42702;SDS011;28341;52.064;4.920;2023-06-19T06:03:30;19.02;;;9.80;;
42702;SDS011;28341;52.064;4.920;2023-06-19T06:05:36;12.05;;;10.02;;
42702;SDS011;28341;52.064;4.920;2023-06-19T06:07:43;11.70;;;10.00;;
42702;SDS011;28341;52.064;4.920;2023-06-19T06:09:47;14.98;;;10.02;;
42702;SDS011;28341;52.064;4.920;2023-06-19T06:11:52;13.10;;;10.13;;
42702;SDS011;28341;52.064;4.920;2023-06-19T06:13:56;12.73;;;10.18;;
42702;SDS011;28341;52.064;4.920;2023-06-19T06:16:01;12.88;;;10.88;;
42702;SDS011;28341;52.064;4.920;2023-06-19T06:18:05;15.32;;;10.82;;
42702;SDS011;28341;52.064;4.920;2023-06-19T06:20:10;15.35;;;11.48;;
42702;SDS011;28341;52.064;4.920;2023-06-19T06:22:14;14.38;;;11.90;;
42702;SDS011;28341;52.064;4.920;2023-06-19T06:24:21;21.85;;;16.75;;
42702;SDS011;28341;52.064;4.920;2023-06-19T06:26:25;14.90;;;12.95;;
42702;SDS011;28341;52.064;4.920;2023-06-19T06:28:30;19.48;;;12.88;;
42702;SDS011;28341;52.064;4.920;2023-06-19T06:30:34;13.95;;;11.88;;
42702;SDS011;28341;52.064;4.920;2023-06-19T06:32:39;16.23;;;12.85;;
42702;SDS011;28341;52.064;4.920;2023-06-19T06:34:43;16.10;;;12.15;;
42702;SDS011;28341;52.064;4.920;2023-06-19T06:36:48;14.93;;;13.00;;
42702;SDS011;28341;52.064;4.920;2023-06-19T06:38:52;15.73;;;13.75;;
42702;SDS011;28341;52.064;4.920;2023-06-19T06:40:59;16.95;;;15.02;;
42702;SDS011;28341;52.064;4.920;2023-06-19T06:43:04;15.73;;;13.27;;
42702;SDS011;28341;52.064;4.920;2023-06-19T06:45:09;17.38;;;15.20;;
42702;SDS011;28341;52.064;4.920;2023-06-19T06:47:13;16.83;;;15.02;;
42702;SDS011;28341;52.064;4.920;2023-06-19T06:49:17;17.45;;;15.27;;
42702;SDS011;28341;52.064;4.920;2023-06-19T06:51:22;20.50;;;15.98;;
42702;SDS011;28341;52.064;4.920;2023-06-19T06:53:26;27.65;;;16.67;;
42702;SDS011;28341;52.064;4.920;2023-06-19T06:55:32;21.80;;;15.38;;
42702;SDS011;28341;52.064;4.920;2023-06-19T06:57:38;17.60;;;15.23;;
42702;SDS011;28341;52.064;4.920;2023-06-19T06:59:43;19.40;;;15.38;;
42702;SDS011;28341;52.064;4.920;2023-06-19T07:01:47;17.65;;;14.57;;
42702;SDS011;28341;52.064;4.920;2023-06-19T07:03:51;20.83;;;15.50;;
42702;SDS011;28341;52.064;4.920;2023-06-19T07:05:55;21.25;;;15.52;;
42702;SDS011;28341;52.064;4.920;2023-06-19T07:07:59;19.80;;;15.05;;
42702;SDS011;28341;52.064;4.920;2023-06-19T07:10:04;18.60;;;13.98;;
42702;SDS011;28341;52.064;4.920;2023-06-19T07:12:09;18.45;;;14.90;;
42702;SDS011;28341;52.064;4.920;2023-06-19T07:14:16;18.02;;;14.25;;
42702;SDS011;28341;52.064;4.920;2023-06-19T07:16:20;19.10;;;14.13;;
42702;SDS011;28341;52.064;4.920;2023-06-19T07:18:24;20.17;;;13.80;;
42702;SDS011;28341;52.064;4.920;2023-06-19T07:20:28;20.98;;;14.27;;
42702;SDS011;28341;52.064;4.920;2023-06-19T07:22:32;21.48;;;14.15;;
42702;SDS011;28341;52.064;4.920;2023-06-19T07:24:36;20.67;;;15.00;;
42702;SDS011;28341;52.064;4.920;2023-06-19T07:26:40;19.73;;;14.45;;
42702;SDS011;28341;52.064;4.920;2023-06-19T07:28:44;19.00;;;14.27;;
42702;SDS011;28341;52.064;4.920;2023-06-19T07:30:51;17.30;;;13.63;;
42702;SDS011;28341;52.064;4.920;2023-06-19T07:32:55;15.25;;;12.80;;
42702;SDS011;28341;52.064;4.920;2023-06-19T07:34:59;18.45;;;13.10;;
42702;SDS011;28341;52.064;4.920;2023-06-19T07:37:03;21.48;;;13.82;;
42702;SDS011;28341;52.064;4.920;2023-06-19T07:39:08;20.30;;;13.77;;
42702;SDS011;28341;52.064;4.920;2023-06-19T07:41:12;22.60;;;13.77;;
42702;SDS011;28341;52.064;4.920;2023-06-19T07:43:16;18.50;;;13.65;;
42702;SDS011;28341;52.064;4.920;2023-06-19T07:45:22;18.75;;;12.43;;
42702;SDS011;28341;52.064;4.920;2023-06-19T07:47:29;21.40;;;14.00;;
42702;SDS011;28341;52.064;4.920;2023-06-19T07:49:33;19.75;;;13.57;;
42702;SDS011;28341;52.064;4.920;2023-06-19T07:51:37;21.63;;;16.80;;
42702;SDS011;28341;52.064;4.920;2023-06-19T07:53:41;26.00;;;19.10;;
42702;SDS011;28341;52.064;4.920;2023-06-19T07:55:46;24.27;;;19.35;;
42702;SDS011;28341;52.064;4.920;2023-06-19T07:57:50;23.33;;;18.15;;
42702;SDS011;28341;52.064;4.920;2023-06-19T07:59:57;22.83;;;19.02;;
42702;SDS011;28341;52.064;4.920;2023-06-19T08:02:12;21.63;;;18.27;;
42702;SDS011;28341;52.064;4.920;2023-06-19T08:04:19;24.40;;;17.65;;
42702;SDS011;28341;52.064;4.920;2023-06-19T08:06:23;23.40;;;17.10;;
42702;SDS011;28341;52.064;4.920;2023-06-19T08:08:28;20.95;;;17.77;;
42702;SDS011;28341;52.064;4.920;2023-06-19T08:10:32;21.98;;;18.40;;
42702;SDS011;28341;52.064;4.920;2023-06-19T08:12:37;22.25;;;18.73;;
42702;SDS011;28341;52.064;4.920;2023-06-19T08:14:41;22.27;;;19.38;;
42702;SDS011;28341;52.064;4.920;2023-06-19T08:16:45;26.50;;;20.30;;
42702;SDS011;28341;52.064;4.920;2023-06-19T08:18:49;22.40;;;20.00;;
42702;SDS011;28341;52.064;4.920;2023-06-19T08:20:56;22.70;;;20.05;;
42702;SDS011;28341;52.064;4.920;2023-06-19T08:23:00;22.85;;;18.77;;
42702;SDS011;28341;52.064;4.920;2023-06-19T08:25:04;27.92;;;19.00;;
42702;SDS011;28341;52.064;4.920;2023-06-19T08:27:09;21.88;;;19.23;;
42702;SDS011;28341;52.064;4.920;2023-06-19T08:29:13;23.83;;;19.52;;
42702;SDS011;28341;52.064;4.920;2023-06-19T08:31:17;24.63;;;18.88;;
42702;SDS011;28341;52.064;4.920;2023-06-19T08:33:21;21.92;;;18.63;;
42702;SDS011;28341;52.064;4.920;2023-06-19T08:35:25;23.58;;;19.02;;
42702;SDS011;28341;52.064;4.920;2023-06-19T08:37:32;25.50;;;19.33;;
42702;SDS011;28341;52.064;4.920;2023-06-19T08:39:36;24.52;;;17.73;;
42702;SDS011;28341;52.064;4.920;2023-06-19T08:41:40;30.30;;;19.42;;
42702;SDS011;28341;52.064;4.920;2023-06-19T08:43:45;25.65;;;20.02;;
42702;SDS011;28341;52.064;4.920;2023-06-19T08:45:52;26.73;;;19.58;;
42702;SDS011;28341;52.064;4.920;2023-06-19T08:48:04;22.33;;;19.88;;
42702;SDS011;28341;52.064;4.920;2023-06-19T08:50:13;22.27;;;17.88;;
42702;SDS011;28341;52.064;4.920;2023-06-19T08:52:17;25.02;;;19.15;;
42702;SDS011;28341;52.064;4.920;2023-06-19T08:54:24;22.73;;;18.90;;
42702;SDS011;28341;52.064;4.920;2023-06-19T08:56:28;23.08;;;18.63;;
42702;SDS011;28341;52.064;4.920;2023-06-19T08:58:34;21.55;;;17.58;;
42702;SDS011;28341;52.064;4.920;2023-06-19T09:00:38;23.25;;;20.15;;
42702;SDS011;28341;52.064;4.920;2023-06-19T09:02:43;24.60;;;19.42;;
42702;SDS011;28341;52.064;4.920;2023-06-19T09:04:49;26.23;;;20.77;;
42702;SDS011;28341;52.064;4.920;2023-06-19T09:06:54;25.35;;;19.23;;
42702;SDS011;28341;52.064;4.920;2023-06-19T09:08:59;23.13;;;19.45;;
42702;SDS011;28341;52.064;4.920;2023-06-19T09:11:10;20.15;;;17.73;;
42702;SDS011;28341;52.064;4.920;2023-06-19T09:13:16;23.67;;;18.02;;
42702;SDS011;28341;52.064;4.920;2023-06-19T09:15:20;22.13;;;18.95;;
42702;SDS011;28341;52.064;4.920;2023-06-19T09:17:25;22.73;;;18.92;;
42702;SDS011;28341;52.064;4.920;2023-06-19T09:19:33;21.42;;;19.00;;
42702;SDS011;28341;52.064;4.920;2023-06-19T09:21:37;23.77;;;20.20;;
42702;SDS011;28341;52.064;4.920;2023-06-19T09:23:42;23.15;;;19.45;;
42702;SDS011;28341;52.064;4.920;2023-06-19T09:25:47;38.47;;;21.08;;
42702;SDS011;28341;52.064;4.920;2023-06-19T09:27:56;27.23;;;20.77;;
42702;SDS011;28341;52.064;4.920;2023-06-19T09:30:01;22.67;;;19.52;;
42702;SDS011;28341;52.064;4.920;2023-06-19T09:32:14;25.67;;;19.80;;
42702;SDS011;28341;52.064;4.920;2023-06-19T09:34:21;23.77;;;19.05;;
42702;SDS011;28341;52.064;4.920;2023-06-19T09:36:25;28.33;;;20.35;;
42702;SDS011;28341;52.064;4.920;2023-06-19T09:38:30;31.50;;;22.00;;
42702;SDS011;28341;52.064;4.920;2023-06-19T09:40:37;24.45;;;21.10;;
42702;SDS011;28341;52.064;4.920;2023-06-19T09:42:42;24.40;;;20.80;;
42702;SDS011;28341;52.064;4.920;2023-06-19T09:45:04;24.00;;;21.23;;
42702;SDS011;28341;52.064;4.920;2023-06-19T09:47:13;26.23;;;21.27;;
42702;SDS011;28341;52.064;4.920;2023-06-19T09:49:22;21.33;;;19.10;;
42702;SDS011;28341;52.064;4.920;2023-06-19T09:51:29;30.55;;;23.73;;
42702;SDS011;28341;52.064;4.920;2023-06-19T09:53:36;38.25;;;32.67;;
42702;SDS011;28341;52.064;4.920;2023-06-19T09:55:40;26.83;;;23.60;;
42702;SDS011;28341;52.064;4.920;2023-06-19T09:57:45;25.85;;;19.70;;
42702;SDS011;28341;52.064;4.920;2023-06-19T09:59:53;20.90;;;18.60;;
42702;SDS011;28341;52.064;4.920;2023-06-19T10:02:02;21.63;;;19.02;;
42702;SDS011;28341;52.064;4.920;2023-06-19T10:04:08;21.48;;;19.15;;
42702;SDS011;28341;52.064;4.920;2023-06-19T10:06:13;22.48;;;18.13;;
42702;SDS011;28341;52.064;4.920;2023-06-19T10:08:26;20.40;;;16.98;;
42702;SDS011;28341;52.064;4.920;2023-06-19T10:10:32;19.92;;;17.83;;
42702;SDS011;28341;52.064;4.920;2023-06-19T10:12:37;20.75;;;18.60;;
42702;SDS011;28341;52.064;4.920;2023-06-19T10:14:46;23.50;;;18.77;;
42702;SDS011;28341;52.064;4.920;2023-06-19T10:16:50;22.40;;;20.05;;
42702;SDS011;28341;52.064;4.920;2023-06-19T10:18:57;22.50;;;18.40;;
42702;SDS011;28341;52.064;4.920;2023-06-19T10:21:03;21.48;;;19.17;;
42702;SDS011;28341;52.064;4.920;2023-06-19T10:23:09;21.10;;;18.30;;
42702;SDS011;28341;52.064;4.920;2023-06-19T10:25:21;18.27;;;16.38;;
42702;SDS011;28341;52.064;4.920;2023-06-19T10:27:26;19.30;;;16.38;;
42702;SDS011;28341;52.064;4.920;2023-06-19T10:29:39;20.27;;;17.13;;
42702;SDS011;28341;52.064;4.920;2023-06-19T10:31:44;17.85;;;15.93;;
42702;SDS011;28341;52.064;4.920;2023-06-19T10:33:49;21.17;;;17.75;;
42702;SDS011;28341;52.064;4.920;2023-06-19T10:35:56;18.33;;;16.48;;
42702;SDS011;28341;52.064;4.920;2023-06-19T10:38:01;21.58;;;17.00;;
42702;SDS011;28341;52.064;4.920;2023-06-19T10:40:06;19.85;;;17.10;;
42702;SDS011;28341;52.064;4.920;2023-06-19T10:42:13;18.95;;;16.95;;
42702;SDS011;28341;52.064;4.920;2023-06-19T10:44:17;21.88;;;19.48;;
42702;SDS011;28341;52.064;4.920;2023-06-19T10:46:21;23.52;;;20.38;;
42702;SDS011;28341;52.064;4.920;2023-06-19T10:48:27;18.65;;;16.75;;
42702;SDS011;28341;52.064;4.920;2023-06-19T10:50:33;17.38;;;15.57;;
42702;SDS011;28341;52.064;4.920;2023-06-19T10:52:44;18.08;;;15.32;;
42702;SDS011;28341;52.064;4.920;2023-06-19T10:54:52;18.55;;;16.63;;
42702;SDS011;28341;52.064;4.920;2023-06-19T10:56:57;17.60;;;13.68;;
42702;SDS011;28341;52.064;4.920;2023-06-19T10:59:03;16.95;;;14.93;;
42702;SDS011;28341;52.064;4.920;2023-06-19T11:01:09;17.80;;;15.18;;
42702;SDS011;28341;52.064;4.920;2023-06-19T11:03:14;17.58;;;13.88;;
42702;SDS011;28341;52.064;4.920;2023-06-19T11:05:20;18.08;;;12.70;;
42702;SDS011;28341;52.064;4.920;2023-06-19T11:07:25;16.05;;;13.68;;
42702;SDS011;28341;52.064;4.920;2023-06-19T11:09:32;13.70;;;12.30;;
42702;SDS011;28341;52.064;4.920;2023-06-19T11:11:37;15.05;;;12.32;;
42702;SDS011;28341;52.064;4.920;2023-06-19T11:13:43;17.83;;;13.23;;
42702;SDS011;28341;52.064;4.920;2023-06-19T11:15:48;15.68;;;13.93;;
42702;SDS011;28341;52.064;4.920;2023-06-19T11:17:52;15.77;;;14.15;;
42702;SDS011;28341;52.064;4.920;2023-06-19T11:19:57;18.65;;;13.80;;
42702;SDS011;28341;52.064;4.920;2023-06-19T11:22:02;15.32;;;13.68;;
42702;SDS011;28341;52.064;4.920;2023-06-19T11:24:10;13.27;;;11.88;;
42702;SDS011;28341;52.064;4.920;2023-06-19T11:26:18;15.15;;;12.00;;
42702;SDS011;28341;52.064;4.920;2023-06-19T11:28:22;14.35;;;12.43;;
42702;SDS011;28341;52.064;4.920;2023-06-19T11:30:30;16.40;;;13.13;;
42702;SDS011;28341;52.064;4.920;2023-06-19T11:32:36;15.05;;;13.30;;
42702;SDS011;28341;52.064;4.920;2023-06-19T11:34:48;14.90;;;12.15;;
42702;SDS011;28341;52.064;4.920;2023-06-19T11:36:52;18.75;;;14.40;;
42702;SDS011;28341;52.064;4.920;2023-06-19T11:38:57;16.05;;;12.65;;
42702;SDS011;28341;52.064;4.920;2023-06-19T11:41:02;14.63;;;13.05;;
42702;SDS011;28341;52.064;4.920;2023-06-19T11:43:12;13.85;;;11.70;;
42702;SDS011;28341;52.064;4.920;2023-06-19T11:45:27;11.73;;;10.13;;
42702;SDS011;28341;52.064;4.920;2023-06-19T11:47:33;16.50;;;11.02;;
42702;SDS011;28341;52.064;4.920;2023-06-19T11:49:38;13.70;;;11.75;;
42702;SDS011;28341;52.064;4.920;2023-06-19T11:51:43;11.27;;;10.07;;
42702;SDS011;28341;52.064;4.920;2023-06-19T11:53:48;11.93;;;10.70;;
42702;SDS011;28341;52.064;4.920;2023-06-19T11:55:53;13.98;;;11.20;;
42702;SDS011;28341;52.064;4.920;2023-06-19T11:57:58;12.57;;;9.75;;
42702;SDS011;28341;52.064;4.920;2023-06-19T12:00:11;14.93;;;11.13;;
42702;SDS011;28341;52.064;4.920;2023-06-19T12:02:19;13.43;;;12.02;;
42702;SDS011;28341;52.064;4.920;2023-06-19T12:04:24;13.48;;;11.35;;
42702;SDS011;28341;52.064;4.920;2023-06-19T12:06:29;13.77;;;10.82;;
42702;SDS011;28341;52.064;4.920;2023-06-19T12:08:35;14.98;;;11.98;;
42702;SDS011;28341;52.064;4.920;2023-06-19T12:10:40;13.63;;;12.02;;
42702;SDS011;28341;52.064;4.920;2023-06-19T12:12:44;14.23;;;12.23;;
42702;SDS011;28341;52.064;4.920;2023-06-19T12:14:49;14.55;;;12.48;;
42702;SDS011;28341;52.064;4.920;2023-06-19T12:16:55;15.40;;;12.30;;
42702;SDS011;28341;52.064;4.920;2023-06-19T12:19:00;18.30;;;12.93;;
42702;SDS011;28341;52.064;4.920;2023-06-19T12:21:04;15.55;;;12.63;;